Time;durP1;ratioP1;P1;durP2;ratioP2;P2;SDS_P1;SDS_P2;PMS_P1;PMS_P2;Temp;Humidity;BMP_temperature;BMP_pressure;BME280_temperature;BME280_humidity;BME280_pressure;Samples;Min_cycle;Max_cycle;Signal;HPM_P1;HPM_P2
2021/12/04 00:01:07;;;;;;;30.38;3.58;;;11.70;99.90;;;;;;4990696;28;20066;-77
2021/12/04 00:03:34;;;;;;;32.83;2.92;;;11.70;99.90;;;;;;5008135;28;20046;-78
2021/12/04 00:06:06;;;;;;;37.22;3.97;;;11.70;99.90;;;;;;4992502;28;20051;-81
2021/12/04 00:08:35;;;;;;;30.83;4.03;;;11.70;99.90;;;;;;4990472;28;20046;-76
2021/12/04 00:11:03;;;;;;;39.17;3.63;;;11.70;99.90;;;;;;4991965;28;20046;-79
2021/12/04 00:13:30;;;;;;;38.92;3.45;;;11.60;99.90;;;;;;4991817;28;20069;-78
2021/12/04 00:15:58;;;;;;;38.35;3.17;;;11.50;99.90;;;;;;4989419;28;20063;-77
2021/12/04 00:18:25;;;;;;;33.78;3.72;;;11.50;99.90;;;;;;4988544;28;20391;-79
2021/12/04 00:20:53;;;;;;;40.58;3.72;;;11.50;99.90;;;;;;4995806;28;20055;-78
2021/12/04 00:23:20;;;;;;;33.00;3.45;;;11.60;99.90;;;;;;4988458;28;20055;-78
2021/12/04 00:25:47;;;;;;;39.13;2.97;;;11.60;99.90;;;;;;4993693;28;20046;-78
2021/12/04 00:28:14;;;;;;;41.00;3.67;;;11.60;99.90;;;;;;4988517;28;20054;-81
2021/12/04 00:30:43;;;;;;;31.30;2.95;;;11.60;99.90;;;;;;4988543;28;20055;-79
2021/12/04 00:33:16;;;;;;;30.35;3.15;;;11.50;99.90;;;;;;4993196;28;20058;-81
2021/12/04 00:35:46;;;;;;;22.27;3.28;;;11.50;99.90;;;;;;4993658;28;20054;-78
2021/12/04 00:51:32;;;;;;;27.88;3.28;;;11.50;99.90;;;;;;4993056;28;20100;-78
2021/12/04 00:53:59;;;;;;;34.35;3.42;;;11.50;99.90;;;;;;4996505;28;20395;-81
2021/12/04 00:56:26;;;;;;;23.65;2.42;;;11.60;99.90;;;;;;4991390;28;20490;-79
2021/12/04 00:58:53;;;;;;;26.52;2.30;;;11.60;99.90;;;;;;5010023;28;20050;-79
2021/12/04 01:01:20;;;;;;;30.58;3.17;;;11.70;99.90;;;;;;4995582;28;20062;-78
2021/12/04 01:03:48;;;;;;;35.00;3.47;;;11.60;99.90;;;;;;4993855;28;20581;-77
2021/12/04 01:06:15;;;;;;;23.20;2.13;;;11.60;99.90;;;;;;4995053;28;20105;-77
2021/12/04 01:08:42;;;;;;;21.17;2.10;;;11.60;99.90;;;;;;4994646;28;20584;-78
2021/12/04 01:11:09;;;;;;;27.38;2.53;;;11.60;99.90;;;;;;4994119;28;20069;-78
2021/12/04 01:13:36;;;;;;;29.92;2.40;;;11.60;99.90;;;;;;4993514;28;20069;-79
2021/12/04 01:16:03;;;;;;;25.98;2.58;;;11.60;99.90;;;;;;4997205;28;20506;-77
2021/12/04 01:18:31;;;;;;;25.60;2.83;;;11.60;99.90;;;;;;4991664;28;20514;-79
2021/12/04 01:20:58;;;;;;;33.67;2.42;;;11.60;99.90;;;;;;4991340;28;20047;-77
2021/12/04 01:23:25;;;;;;;35.53;3.40;;;11.60;99.90;;;;;;4992440;28;20062;-82
2021/12/04 01:25:52;;;;;;;39.30;3.17;;;11.60;99.90;;;;;;4992882;28;20054;-79
2021/12/04 01:28:19;;;;;;;31.52;3.10;;;11.50;99.90;;;;;;4992584;28;20097;-78
2021/12/04 01:30:46;;;;;;;39.22;2.83;;;11.40;99.90;;;;;;4995403;28;20125;-79
2021/12/04 01:33:13;;;;;;;49.70;3.72;;;11.40;99.90;;;;;;4992189;28;20056;-78
2021/12/04 01:35:40;;;;;;;47.72;4.93;;;11.30;99.90;;;;;;4992103;28;20051;-77
2021/12/04 01:38:07;;;;;;;31.30;2.97;;;11.30;99.90;;;;;;4992473;28;20047;-77
2021/12/04 01:40:34;;;;;;;27.75;2.50;;;11.30;99.90;;;;;;4993936;28;20059;-80
2021/12/04 01:43:01;;;;;;;29.80;2.15;;;11.30;99.90;;;;;;5000451;28;20042;-80
2021/12/04 01:45:28;;;;;;;24.13;2.40;;;11.40;99.90;;;;;;4994104;28;20174;-79
2021/12/04 01:48:02;;;;;;;26.10;2.42;;;11.40;99.90;;;;;;4994122;28;20050;-78
2021/12/04 01:50:31;;;;;;;28.48;1.88;;;11.40;99.90;;;;;;4994429;28;20494;-79
2021/12/04 01:52:59;;;;;;;28.63;2.30;;;11.50;99.90;;;;;;4993122;28;20054;-79
2021/12/04 01:55:28;;;;;;;39.80;2.72;;;11.50;99.90;;;;;;4996353;28;20055;-79
2021/12/04 01:57:55;;;;;;;41.70;3.38;;;11.50;99.90;;;;;;4993947;28;20093;-78
2021/12/04 02:00:22;;;;;;;34.17;2.75;;;11.50;99.90;;;;;;4994299;28;20117;-78
2021/12/04 02:02:49;;;;;;;36.47;2.85;;;11.50;99.90;;;;;;4993050;28;20046;-78
2021/12/04 02:05:16;;;;;;;38.78;2.80;;;11.40;99.90;;;;;;4978047;28;20774;-77
2021/12/04 02:07:44;;;;;;;55.08;3.55;;;11.40;99.90;;;;;;4992189;28;20057;-78
2021/12/04 02:10:11;;;;;;;33.85;3.67;;;11.40;99.90;;;;;;4997628;28;20100;-79
2021/12/04 02:12:38;;;;;;;61.25;3.38;;;11.40;99.90;;;;;;4992570;28;20055;-78
2021/12/04 02:15:09;;;;;;;35.50;3.10;;;11.40;99.90;;;;;;4993730;28;20054;-77
2021/12/04 02:17:36;;;;;;;46.80;4.43;;;11.40;99.90;;;;;;4993979;28;20399;-78
2021/12/04 02:20:14;;;;;;;46.70;3.03;;;11.40;99.90;;;;;;4992429;28;20583;-78
2021/12/04 02:22:41;;;;;;;34.50;2.65;;;11.30;99.90;;;;;;4992975;28;20050;-79
2021/12/04 02:25:09;;;;;;;37.20;2.00;;;11.40;99.90;;;;;;4988962;28;20055;-79
2021/12/04 02:27:37;;;;;;;20.73;2.15;;;11.50;99.90;;;;;;4994977;28;20054;-79
2021/12/04 02:30:09;;;;;;;27.15;1.83;;;11.50;99.90;;;;;;4993599;28;20046;-78
2021/12/04 02:32:36;;;;;;;29.48;2.53;;;11.50;99.90;;;;;;5005211;28;20051;-78
2021/12/04 02:35:05;;;;;;;28.60;2.42;;;11.50;99.90;;;;;;5006234;28;20102;-79
2021/12/04 02:37:33;;;;;;;33.33;2.40;;;11.60;99.90;;;;;;5006416;28;20046;-78
2021/12/04 02:40:00;;;;;;;21.90;2.67;;;11.60;99.90;;;;;;5005383;28;20054;-78
2021/12/04 02:42:30;;;;;;;31.92;3.55;;;11.60;99.90;;;;;;4993265;28;20046;-81
2021/12/04 02:44:59;;;;;;;18.67;2.60;;;11.50;99.90;;;;;;4992828;28;20054;-76
2021/12/04 02:47:28;;;;;;;43.88;4.00;;;11.50;99.90;;;;;;4990979;28;20538;-78
2021/12/04 02:49:56;;;;;;;43.75;4.13;;;11.50;99.90;;;;;;4994696;28;20047;-79
2021/12/04 02:52:24;;;;;;;39.28;4.10;;;11.50;99.90;;;;;;4993119;28;20046;-79
2021/12/04 02:54:51;;;;;;;42.40;3.45;;;11.40;99.90;;;;;;4990148;28;20058;-77
2021/12/04 02:57:20;;;;;;;65.78;5.07;;;11.30;99.90;;;;;;4993087;28;20100;-77
2021/12/04 02:59:48;;;;;;;47.78;4.20;;;11.30;99.90;;;;;;4983908;28;20055;-78
2021/12/04 03:02:21;;;;;;;50.13;4.78;;;11.30;99.90;;;;;;4989315;28;20498;-79
2021/12/04 03:04:51;;;;;;;45.38;3.97;;;11.30;99.90;;;;;;4993028;28;20121;-78
2021/12/04 03:07:18;;;;;;;45.28;4.18;;;11.30;99.90;;;;;;4991598;28;20053;-78
2021/12/04 03:09:51;;;;;;;33.15;3.17;;;11.30;99.90;;;;;;4992839;28;20050;-77
2021/12/04 03:12:20;;;;;;;38.40;3.85;;;11.30;99.90;;;;;;4990641;28;20591;-78
2021/12/04 03:14:47;;;;;;;37.55;3.47;;;11.30;99.90;;;;;;4973347;28;20050;-79
2021/12/04 03:17:17;;;;;;;45.08;4.40;;;11.30;99.90;;;;;;4991228;28;20050;-79
2021/12/04 03:19:44;;;;;;;40.55;3.67;;;11.30;99.90;;;;;;4989194;28;20054;-78
2021/12/04 03:22:11;;;;;;;44.13;3.95;;;11.30;99.90;;;;;;4989313;28;20085;-78
2021/12/04 03:24:41;;;;;;;55.40;4.00;;;11.30;99.90;;;;;;4991562;28;20042;-78
2021/12/04 03:27:08;;;;;;;58.45;4.43;;;11.30;99.90;;;;;;4980570;28;20050;-78
2021/12/04 03:29:41;;;;;;;54.25;4.22;;;11.20;99.90;;;;;;4993571;28;20104;-78
2021/12/04 03:43:03;;;;;;;52.72;3.80;;;11.30;99.90;;;;;;4981196;28;20051;-79
2021/12/04 03:45:31;;;;;;;34.17;3.78;;;11.30;99.90;;;;;;4992855;28;20054;-79
2021/12/04 03:48:06;;;;;;;52.63;4.53;;;11.20;99.90;;;;;;4992931;28;20430;-79
2021/12/04 03:50:34;;;;;;;39.67;4.57;;;11.20;99.90;;;;;;4993149;28;20069;-78
2021/12/04 03:53:02;;;;;;;47.50;4.55;;;11.20;99.90;;;;;;4992215;28;20057;-78
2021/12/04 03:55:29;;;;;;;41.67;4.15;;;11.20;99.90;;;;;;4992327;28;20051;-77
2021/12/04 03:57:56;;;;;;;56.92;5.53;;;11.20;99.90;;;;;;4993420;28;20089;-77
2021/12/04 04:00:28;;;;;;;52.70;4.63;;;11.20;99.90;;;;;;4994739;28;20043;-77
2021/12/04 04:02:57;;;;;;;42.53;3.88;;;11.20;99.90;;;;;;4993427;28;20042;-77
2021/12/04 04:05:25;;;;;;;49.80;4.45;;;11.20;99.90;;;;;;4991683;28;20054;-78
2021/12/04 04:07:53;;;;;;;43.00;5.25;;;11.10;99.90;;;;;;4991920;28;20050;-78
2021/12/04 04:10:21;;;;;;;55.17;4.95;;;11.10;99.90;;;;;;4993782;28;20058;-78
2021/12/04 04:12:48;;;;;;;51.55;5.22;;;11.10;99.90;;;;;;4988952;28;20066;-78
2021/12/04 04:15:16;;;;;;;54.20;5.65;;;11.10;99.90;;;;;;4990893;28;20050;-78
2021/12/04 04:17:43;;;;;;;71.75;6.20;;;11.00;99.90;;;;;;4991394;28;20050;-78
2021/12/04 04:20:16;;;;;;;48.03;5.88;;;10.90;99.90;;;;;;4993944;28;20746;-79
2021/12/04 04:22:45;;;;;;;49.47;6.05;;;10.80;99.90;;;;;;4995348;28;20051;-79
2021/12/04 04:25:15;;;;;;;50.00;5.97;;;10.70;99.90;;;;;;4998297;28;20043;-78
2021/12/04 04:27:42;;;;;;;62.00;6.50;;;10.70;99.90;;;;;;4995240;28;20100;-78
2021/12/04 04:30:14;;;;;;;58.47;6.72;;;10.70;99.90;;;;;;4994682;28;20046;-80
2021/12/04 04:32:46;;;;;;;45.83;5.93;;;10.80;99.90;;;;;;4989193;28;20051;-78
2021/12/04 04:35:15;;;;;;;63.08;6.45;;;10.80;99.90;;;;;;4994571;28;20163;-79
2021/12/04 05:02:16;;;;;;;46.63;6.20;;;10.70;99.90;;;;;;4990680;28;20055;-79
2021/12/04 05:13:02;;;;;;;37.63;4.40;;;10.70;99.90;;;;;;4980549;28;20527;-78
2021/12/04 05:15:36;;;;;;;38.72;4.78;;;10.70;99.90;;;;;;4991845;28;20095;-77
2021/12/04 05:20:39;;;;;;;32.17;5.20;;;10.70;99.90;;;;;;4975652;28;20046;-78
2021/12/04 05:23:10;;;;;;;30.08;3.05;;;10.70;99.90;;;;;;5006546;28;20100;-78
2021/12/04 05:25:37;;;;;;;34.33;4.95;;;10.50;99.90;;;;;;4990801;28;20042;-78
2021/12/04 05:28:05;;;;;;;34.65;4.93;;;10.40;99.90;;;;;;4999598;28;20055;-79
2021/12/04 05:30:32;;;;;;;39.30;5.60;;;10.40;99.90;;;;;;4991409;28;20095;-77
2021/12/04 05:33:00;;;;;;;52.70;5.05;;;10.50;99.90;;;;;;4991151;28;20050;-80
2021/12/04 05:35:27;;;;;;;35.05;5.30;;;10.50;99.90;;;;;;4991483;28;20059;-78
2021/12/04 05:37:54;;;;;;;44.13;4.60;;;10.60;99.90;;;;;;4999011;28;20137;-78
2021/12/04 05:40:22;;;;;;;32.50;4.30;;;10.70;99.90;;;;;;4995197;28;20058;-78
2021/12/04 05:42:49;;;;;;;33.97;4.78;;;10.70;99.90;;;;;;4994447;28;20462;-81
2021/12/04 05:45:20;;;;;;;41.17;5.93;;;10.70;99.90;;;;;;4992530;28;20580;-80
2021/12/04 05:48:32;;;;;;;36.17;3.95;;;10.60;99.90;;;;;;4993867;28;20054;-78
2021/12/04 05:55:52;;;;;;;41.22;4.32;;;10.60;99.90;;;;;;4995260;28;20819;-78
2021/12/04 05:58:24;;;;;;;30.40;4.05;;;10.60;99.90;;;;;;4986293;28;20108;-78
2021/12/04 06:00:54;;;;;;;33.03;4.85;;;10.60;99.90;;;;;;4994011;28;20768;-78
2021/12/04 06:03:21;;;;;;;49.17;7.85;;;10.60;99.90;;;;;;4993270;28;20083;-78
2021/12/04 06:05:48;;;;;;;42.63;5.05;;;10.60;99.90;;;;;;4993709;28;20058;-78
2021/12/04 06:08:16;;;;;;;42.45;5.68;;;10.70;99.90;;;;;;4992401;28;20054;-78
2021/12/04 06:10:43;;;;;;;44.70;5.35;;;10.60;99.90;;;;;;4993681;28;20054;-78
2021/12/04 06:13:10;;;;;;;35.70;6.45;;;10.60;99.90;;;;;;4993989;28;20058;-79
2021/12/04 06:15:37;;;;;;;40.22;4.82;;;10.60;99.90;;;;;;4991068;28;20081;-79
2021/12/04 06:18:04;;;;;;;29.48;3.83;;;10.60;99.90;;;;;;4990645;28;20502;-78
2021/12/04 06:23:16;;;;;;;32.63;4.50;;;10.50;99.90;;;;;;4985983;28;20054;-78
2021/12/04 06:25:43;;;;;;;43.53;4.65;;;10.50;99.90;;;;;;4992252;28;20050;-78
2021/12/04 06:28:10;;;;;;;46.65;5.88;;;10.60;99.90;;;;;;4989922;28;20097;-79
2021/12/04 06:30:38;;;;;;;43.42;4.57;;;10.60;99.90;;;;;;4974968;28;20625;-79
2021/12/04 06:33:07;;;;;;;41.97;6.75;;;10.70;99.90;;;;;;4997720;28;20085;-78
2021/12/04 06:35:40;;;;;;;45.08;5.50;;;10.70;99.90;;;;;;4989786;28;20101;-80
2021/12/04 06:38:12;;;;;;;41.08;4.63;;;10.60;99.90;;;;;;4992655;28;20061;-80
2021/12/04 06:40:40;;;;;;;35.80;5.43;;;10.60;99.90;;;;;;5006006;28;20465;-80
2021/12/04 06:43:07;;;;;;;44.75;4.78;;;10.50;99.90;;;;;;4993455;28;20502;-78
2021/12/04 06:45:37;;;;;;;44.60;5.45;;;10.60;99.90;;;;;;4992041;28;20109;-78
2021/12/04 06:48:18;;;;;;;37.13;5.55;;;10.60;99.90;;;;;;4985857;28;20635;-78
2021/12/04 06:50:50;;;;;;;50.92;5.35;;;10.60;99.90;;;;;;4980923;28;20074;-79
2021/12/04 06:55:49;;;;;;;35.22;5.25;;;10.60;99.90;;;;;;4990415;28;20057;-80
2021/12/04 06:58:17;;;;;;;30.73;5.28;;;10.50;99.90;;;;;;5002128;28;20054;-78
2021/12/04 07:00:44;;;;;;;26.35;3.30;;;10.40;99.90;;;;;;4990617;28;20058;-78
2021/12/04 07:03:16;;;;;;;39.25;4.80;;;10.30;99.90;;;;;;4982665;28;20050;-77
2021/12/04 07:05:43;;;;;;;38.33;5.18;;;10.20;99.90;;;;;;4981174;28;20075;-79
2021/12/04 07:08:11;;;;;;;29.30;3.88;;;10.20;99.90;;;;;;4987110;28;20101;-80
2021/12/04 07:10:38;;;;;;;37.85;4.07;;;10.20;99.90;;;;;;4981561;28;20498;-80
2021/12/04 07:13:05;;;;;;;56.05;5.95;;;10.20;99.90;;;;;;4983694;28;20484;-79
2021/12/04 07:15:33;;;;;;;44.95;5.35;;;10.20;99.90;;;;;;4991964;28;20687;-79
2021/12/04 07:18:01;;;;;;;51.25;6.65;;;10.10;99.90;;;;;;4991453;28;20734;-81
2021/12/04 07:20:29;;;;;;;63.03;6.57;;;10.10;99.90;;;;;;4992656;28;20430;-78
2021/12/04 07:22:56;;;;;;;55.60;4.85;;;10.10;99.90;;;;;;4992341;28;20108;-79
2021/12/04 07:25:23;;;;;;;51.92;6.07;;;10.10;99.90;;;;;;4990910;28;20422;-78
2021/12/04 07:27:50;;;;;;;30.17;4.32;;;10.00;99.90;;;;;;4988804;28;20105;-78
2021/12/04 07:30:18;;;;;;;34.83;4.78;;;10.00;99.90;;;;;;4992533;28;20078;-78
2021/12/04 07:32:46;;;;;;;46.50;5.05;;;9.90;99.90;;;;;;4986706;28;20133;-79
2021/12/04 07:35:14;;;;;;;40.30;5.05;;;9.80;99.90;;;;;;4974099;28;20463;-78
2021/12/04 07:37:42;;;;;;;33.90;5.20;;;9.80;99.90;;;;;;4987947;28;20046;-78
2021/12/04 07:40:10;;;;;;;30.90;4.07;;;9.80;99.90;;;;;;4990336;28;20675;-77
2021/12/04 07:42:38;;;;;;;26.05;4.30;;;9.90;99.90;;;;;;4992206;28;20050;-79
2021/12/04 07:45:05;;;;;;;28.88;4.15;;;9.90;99.90;;;;;;4991794;28;20046;-79
2021/12/04 07:47:32;;;;;;;45.30;4.75;;;10.00;99.90;;;;;;4992075;28;20081;-79
2021/12/04 07:50:01;;;;;;;41.75;5.53;;;10.10;99.90;;;;;;4990769;28;20054;-79
2021/12/04 07:52:28;;;;;;;23.50;4.72;;;10.10;99.90;;;;;;4992196;28;20054;-78
2021/12/04 07:54:55;;;;;;;33.78;6.57;;;10.20;99.90;;;;;;4991728;28;20059;-78
2021/12/04 07:57:22;;;;;;;35.38;5.28;;;10.10;99.90;;;;;;4990787;28;20050;-79
2021/12/04 07:59:49;;;;;;;32.78;4.65;;;10.10;99.90;;;;;;4991833;28;20054;-80
2021/12/04 08:02:16;;;;;;;33.50;6.07;;;10.10;99.90;;;;;;4994686;28;20058;-78
2021/12/04 08:04:43;;;;;;;30.15;4.22;;;10.10;99.90;;;;;;4998345;28;20046;-78
2021/12/04 08:07:10;;;;;;;37.78;4.28;;;10.10;99.90;;;;;;4997568;28;20584;-79
2021/12/04 08:09:37;;;;;;;40.65;5.15;;;10.20;99.90;;;;;;4998534;28;20117;-78
2021/12/04 08:12:05;;;;;;;34.50;4.90;;;10.30;99.90;;;;;;4998257;28;20046;-81
2021/12/04 08:14:31;;;;;;;54.55;6.07;;;10.30;99.90;;;;;;4993882;28;20105;-78
2021/12/04 08:16:58;;;;;;;30.83;4.97;;;10.30;99.90;;;;;;4998093;28;21090;-79
2021/12/04 08:19:25;;;;;;;34.33;4.07;;;10.30;99.90;;;;;;4995817;28;20086;-80
2021/12/04 08:21:52;;;;;;;58.78;5.85;;;10.20;99.90;;;;;;4982875;28;20043;-78
2021/12/04 08:24:19;;;;;;;30.73;4.70;;;10.20;99.90;;;;;;5002857;28;20039;-79
2021/12/04 08:26:47;;;;;;;30.27;4.53;;;10.20;99.90;;;;;;5006498;28;20046;-78
2021/12/04 08:29:14;;;;;;;30.88;4.18;;;10.10;99.90;;;;;;4987652;28;20050;-77
2021/12/04 08:31:42;;;;;;;28.25;4.50;;;10.20;99.90;;;;;;5003074;28;20046;-78
2021/12/04 08:34:10;;;;;;;31.10;4.57;;;10.20;99.90;;;;;;4989721;28;20093;-78
2021/12/04 08:36:37;;;;;;;39.67;4.65;;;10.30;99.90;;;;;;4990142;28;20043;-79
2021/12/04 08:39:05;;;;;;;31.80;4.85;;;10.30;99.90;;;;;;4990737;28;20043;-78
2021/12/04 08:41:32;;;;;;;44.90;4.60;;;10.30;99.90;;;;;;5004851;28;20446;-80
2021/12/04 08:44:00;;;;;;;38.85;4.40;;;10.30;99.90;;;;;;4991084;28;20398;-80
2021/12/04 08:46:27;;;;;;;28.30;4.57;;;10.30;99.90;;;;;;4997809;28;20050;-79
2021/12/04 08:48:54;;;;;;;44.10;6.35;;;10.30;99.90;;;;;;4997960;28;20524;-81
2021/12/04 08:51:23;;;;;;;36.28;5.78;;;10.20;99.90;;;;;;4994087;28;20050;-78
2021/12/04 08:53:51;;;;;;;35.33;5.03;;;10.20;99.90;;;;;;4997863;28;20121;-79
2021/12/04 08:56:19;;;;;;;32.92;4.95;;;10.30;99.90;;;;;;4998867;28;20058;-79
2021/12/04 08:58:46;;;;;;;29.73;5.47;;;10.30;99.90;;;;;;4997475;28;20065;-78
2021/12/04 09:01:23;;;;;;;33.33;4.60;;;10.40;99.90;;;;;;4993040;28;20074;-79
2021/12/04 09:03:55;;;;;;;32.60;4.22;;;10.40;99.90;;;;;;5007653;28;20078;-79
2021/12/04 09:06:23;;;;;;;12.15;2.85;;;10.30;99.90;;;;;;5010472;28;20047;-79
2021/12/04 09:08:50;;;;;;;13.23;2.05;;;10.20;99.90;;;;;;5010556;28;20050;-80
2021/12/04 09:11:22;;;;;;;9.57;1.90;;;10.00;99.90;;;;;;5006506;28;20042;-79
2021/12/04 09:13:50;;;;;;;27.98;3.58;;;10.00;99.90;;;;;;4995061;28;20046;-80
2021/12/04 09:16:17;;;;;;;30.30;4.32;;;10.00;99.90;;;;;;4993177;28;20054;-80
2021/12/04 09:18:45;;;;;;;18.48;2.45;;;9.90;99.90;;;;;;4994355;28;20058;-80
2021/12/04 09:21:12;;;;;;;14.00;2.20;;;9.60;99.90;;;;;;4994612;28;20058;-80
2021/12/04 09:23:43;;;;;;;20.33;2.58;;;9.40;99.90;;;;;;4993171;28;20594;-81
2021/12/04 09:26:15;;;;;;;27.83;3.97;;;9.30;99.90;;;;;;4994421;28;20098;-81
2021/12/04 09:28:51;;;;;;;19.27;2.53;;;9.40;99.90;;;;;;4994683;28;20058;-80
2021/12/04 09:35:10;;;;;;;17.25;2.50;;;9.60;99.90;;;;;;4985178;28;20456;-80
2021/12/04 10:15:46;;;;;;;20.00;3.22;;;9.80;99.90;;;;;;4982955;28;20042;-79
2021/12/04 10:21:17;;;;;;;29.35;4.00;;;9.80;99.90;;;;;;4984378;28;20062;-80
2021/12/04 10:34:50;;;;;;;22.77;3.67;;;10.00;99.90;;;;;;4959893;28;20050;-80
2021/12/04 10:37:23;;;;;;;17.95;3.25;;;10.00;99.90;;;;;;4986525;28;20091;-80
2021/12/04 10:40:20;;;;;;;35.88;5.07;;;10.00;99.90;;;;;;4981959;28;20116;-80
2021/12/04 10:42:56;;;;;;;24.70;4.55;;;10.00;99.90;;;;;;4980642;28;20118;-79
2021/12/04 10:45:33;;;;;;;28.33;4.15;;;10.00;99.90;;;;;;5002428;28;20506;-80
2021/12/04 10:48:06;;;;;;;21.52;4.60;;;10.00;99.90;;;;;;4988060;28;20530;-78
2021/12/04 10:50:42;;;;;;;29.85;4.05;;;9.90;99.90;;;;;;4984769;28;20050;-81
2021/12/04 10:53:14;;;;;;;26.85;3.45;;;9.90;99.90;;;;;;4991899;28;20435;-79
2021/12/04 11:04:11;;;;;;;29.77;3.20;;;9.80;99.90;;;;;;4985758;28;20510;-80
2021/12/04 11:06:56;;;;;;;24.25;3.20;;;9.90;99.90;;;;;;4981468;28;20102;-80
2021/12/04 11:21:37;;;;;;;18.20;3.00;;;9.60;99.90;;;;;;4980244;28;20046;-79
2021/12/04 11:42:41;;;;;;;20.27;2.72;;;10.00;99.90;;;;;;4976712;28;20051;-79
2021/12/04 11:45:25;;;;;;;24.00;2.83;;;10.00;99.90;;;;;;5007647;28;20050;-80
2021/12/04 11:47:58;;;;;;;30.42;2.70;;;10.10;99.90;;;;;;5007926;28;20050;-82
2021/12/04 11:50:37;;;;;;;28.95;4.35;;;10.20;99.90;;;;;;5004762;28;20646;-80
2021/12/04 11:53:11;;;;;;;28.75;3.97;;;10.20;99.90;;;;;;4984579;28;20507;-81
2021/12/04 11:55:44;;;;;;;26.17;3.03;;;10.10;99.90;;;;;;4976848;28;20046;-80
2021/12/04 11:58:25;;;;;;;20.77;2.85;;;10.10;99.90;;;;;;4993744;28;20501;-79
2021/12/04 12:00:56;;;;;;;23.77;3.60;;;10.10;99.90;;;;;;4997909;28;20053;-78
2021/12/04 12:03:29;;;;;;;27.95;2.95;;;10.10;99.90;;;;;;4986935;28;20043;-83
2021/12/04 12:05:58;;;;;;;26.38;3.45;;;10.20;99.90;;;;;;4982066;28;20047;-79
2021/12/04 12:08:43;;;;;;;26.48;3.30;;;10.40;99.90;;;;;;4993898;28;20698;-81
2021/12/04 12:11:27;;;;;;;24.42;3.72;;;10.60;99.90;;;;;;4988178;28;20073;-80
2021/12/04 12:14:38;;;;;;;20.23;3.15;;;10.90;99.90;;;;;;4982799;28;20058;-80
2021/12/04 12:17:06;;;;;;;24.23;3.50;;;11.20;99.90;;;;;;4986602;28;20051;-81
2021/12/04 12:19:43;;;;;;;20.30;3.28;;;11.30;99.90;;;;;;4991026;28;20104;-79
2021/12/04 12:22:33;;;;;;;20.65;4.13;;;11.30;99.90;;;;;;4990326;28;20065;-78
2021/12/04 12:25:18;;;;;;;31.85;3.75;;;11.00;99.90;;;;;;4989755;28;20046;-80
2021/12/04 12:36:12;;;;;;;8.85;1.23;;;10.10;99.90;;;;;;4974272;28;20054;-80
2021/12/04 12:38:39;;;;;;;16.65;1.98;;;10.00;99.90;;;;;;4971981;28;20062;-79
2021/12/04 12:41:19;;;;;;;8.20;1.70;;;10.00;99.90;;;;;;4972955;28;20059;-79
2021/12/04 12:44:04;;;;;;;20.17;2.65;;;9.90;99.90;;;;;;4977540;28;20498;-80
2021/12/04 12:46:56;;;;;;;14.43;2.38;;;9.90;99.90;;;;;;4983902;28;20098;-78
2021/12/04 12:49:29;;;;;;;15.05;2.00;;;10.00;99.90;;;;;;4986429;28;20054;-79
2021/12/04 12:52:12;;;;;;;11.43;1.92;;;10.00;99.90;;;;;;4979423;28;20102;-78
2021/12/04 12:55:11;;;;;;;12.70;1.70;;;10.10;99.90;;;;;;4985232;28;20646;-79
2021/12/04 12:57:42;;;;;;;16.55;2.25;;;10.20;99.90;;;;;;4986873;28;20416;-79
2021/12/04 13:14:31;;;;;;;11.85;2.35;;;10.00;99.90;;;;;;4961581;28;20043;-80
2021/12/04 13:17:26;;;;;;;21.33;2.65;;;10.00;99.90;;;;;;4983858;28;20109;-77
2021/12/04 13:19:56;;;;;;;12.35;2.42;;;10.00;99.90;;;;;;4983424;28;20470;-79
2021/12/04 13:22:25;;;;;;;20.77;3.25;;;10.00;99.90;;;;;;4981956;28;20046;-79
2021/12/04 13:24:55;;;;;;;16.95;3.33;;;10.00;99.90;;;;;;4986197;28;20093;-80
2021/12/04 13:30:12;;;;;;;22.75;3.50;;;10.10;99.90;;;;;;4982917;28;20515;-79
2021/12/04 13:32:45;;;;;;;23.48;2.80;;;9.90;99.90;;;;;;4988466;28;20054;-80
2021/12/04 13:35:21;;;;;;;20.88;2.00;;;9.50;99.90;;;;;;4982545;28;20047;-80
2021/12/04 13:37:58;;;;;;;10.27;1.55;;;9.30;99.90;;;;;;4984915;28;20058;-79
2021/12/04 13:40:26;;;;;;;12.07;1.70;;;9.10;99.90;;;;;;4989734;28;20046;-79
2021/12/04 13:42:55;;;;;;;17.98;2.25;;;9.10;99.90;;;;;;5006043;28;20050;-79
2021/12/04 13:45:22;;;;;;;16.70;2.08;;;9.00;99.90;;;;;;4981841;28;20046;-79
2021/12/04 13:47:55;;;;;;;24.58;2.92;;;8.90;99.90;;;;;;4981366;28;20055;-79
2021/12/04 13:53:13;;;;;;;24.83;2.97;;;8.90;99.90;;;;;;4986348;28;20491;-81
2021/12/04 13:55:43;;;;;;;23.88;2.55;;;8.90;99.90;;;;;;4992704;28;20054;-80
2021/12/04 13:58:10;;;;;;;23.17;4.18;;;8.90;99.90;;;;;;5021579;28;20058;-81
2021/12/04 14:00:37;;;;;;;19.70;2.75;;;8.90;99.90;;;;;;5004341;28;20050;-80
2021/12/04 14:03:04;;;;;;;22.00;2.88;;;8.90;99.90;;;;;;4993997;28;20058;-79
2021/12/04 14:05:32;;;;;;;18.40;2.35;;;9.00;99.90;;;;;;4994138;28;20054;-80
2021/12/04 14:08:02;;;;;;;24.88;4.35;;;9.00;99.90;;;;;;4993847;28;20109;-80
2021/12/04 14:10:32;;;;;;;34.30;3.45;;;9.00;99.90;;;;;;4992526;28;20050;-79
2021/12/04 14:13:03;;;;;;;28.83;3.60;;;8.90;99.90;;;;;;4992080;28;20100;-80
2021/12/04 14:15:31;;;;;;;31.20;3.72;;;8.80;99.90;;;;;;4993235;28;20054;-80
2021/12/04 14:18:09;;;;;;;31.90;4.13;;;8.60;99.90;;;;;;4993030;28;20112;-80
2021/12/04 14:20:38;;;;;;;27.30;3.85;;;8.50;99.90;;;;;;4993540;28;20042;-79
2021/12/04 14:23:07;;;;;;;35.25;4.80;;;8.40;99.90;;;;;;4994352;28;20112;-79
2021/12/04 14:25:42;;;;;;;27.17;3.80;;;8.40;99.90;;;;;;4988991;28;20046;-80
2021/12/04 14:28:10;;;;;;;33.30;3.53;;;8.40;99.90;;;;;;4985856;28;20062;-81
2021/12/04 14:30:38;;;;;;;30.50;3.08;;;8.30;99.90;;;;;;5009621;28;20113;-82
2021/12/04 14:33:09;;;;;;;38.55;3.80;;;8.30;99.90;;;;;;5004880;28;20472;-78
2021/12/04 14:35:47;;;;;;;29.00;4.25;;;8.40;99.90;;;;;;4978462;28;20085;-80
2021/12/04 14:38:18;;;;;;;25.90;3.35;;;8.50;99.90;;;;;;4995381;28;20522;-78
2021/12/04 14:41:07;;;;;;;28.02;3.80;;;8.60;99.90;;;;;;4987814;28;20418;-79
2021/12/04 14:43:38;;;;;;;30.83;3.25;;;9.00;99.90;;;;;;4991981;28;20042;-78
2021/12/04 14:46:09;;;;;;;34.90;4.35;;;8.80;99.90;;;;;;4993117;28;20049;-82
2021/12/04 14:48:44;;;;;;;33.28;3.60;;;8.70;99.90;;;;;;4989194;28;20051;-78
2021/12/04 14:51:15;;;;;;;36.08;3.60;;;8.90;99.90;;;;;;4973499;28;20051;-80
2021/12/04 14:54:05;;;;;;;46.80;5.82;;;8.80;99.90;;;;;;4975231;28;20051;-78
2021/12/04 14:56:33;;;;;;;38.03;4.70;;;8.70;99.90;;;;;;4996669;28;20097;-77
2021/12/04 14:59:01;;;;;;;30.10;3.88;;;8.70;99.90;;;;;;4986211;28;20058;-78
2021/12/04 15:01:33;;;;;;;26.42;2.70;;;8.70;99.90;;;;;;4984114;28;20426;-79
2021/12/04 15:04:03;;;;;;;25.80;2.72;;;8.80;99.90;;;;;;5003268;28;20133;-81
2021/12/04 15:06:34;;;;;;;33.65;4.47;;;8.90;99.90;;;;;;4989379;28;20050;-79
2021/12/04 15:09:07;;;;;;;30.98;3.53;;;9.00;99.90;;;;;;4983464;28;20046;-77
2021/12/04 15:11:35;;;;;;;29.33;3.42;;;9.20;99.90;;;;;;4991511;28;20057;-79
2021/12/04 15:14:08;;;;;;;22.48;2.78;;;9.20;99.90;;;;;;4992849;28;20046;-81
2021/12/04 15:16:41;;;;;;;34.85;3.88;;;9.30;99.90;;;;;;4992700;28;20705;-80
2021/12/04 15:19:19;;;;;;;25.42;3.17;;;9.30;99.90;;;;;;4991651;28;20074;-80
2021/12/04 15:21:56;;;;;;;33.00;5.03;;;9.30;99.90;;;;;;4992453;28;20101;-80
2021/12/04 15:24:35;;;;;;;38.78;5.53;;;9.30;99.90;;;;;;4992038;28;20050;-80
2021/12/04 15:27:14;;;;;;;29.27;3.03;;;9.20;99.90;;;;;;4991998;28;20046;-81
2021/12/04 15:29:46;;;;;;;25.67;3.45;;;9.00;99.90;;;;;;4974006;28;20530;-80
2021/12/04 15:32:15;;;;;;;27.95;3.10;;;9.00;99.90;;;;;;4988079;28;20051;-76
2021/12/04 15:34:53;;;;;;;26.55;3.45;;;9.00;99.90;;;;;;4991180;28;20104;-80
2021/12/04 15:37:37;;;;;;;26.17;4.32;;;9.00;99.90;;;;;;4992116;28;20093;-80
2021/12/04 15:40:25;;;;;;;29.58;3.83;;;9.00;99.90;;;;;;4987469;28;20561;-78
2021/12/04 15:43:20;;;;;;;29.38;4.28;;;9.00;99.90;;;;;;4981190;28;20047;-81
2021/12/04 15:45:59;;;;;;;42.17;4.45;;;9.00;99.90;;;;;;4973800;28;20101;-80
2021/12/04 15:49:09;;;;;;;30.10;3.22;;;9.00;99.90;;;;;;4992244;28;20054;-80
2021/12/04 15:54:22;;;;;;;26.88;4.32;;;9.00;99.90;;;;;;4973686;28;20051;-79
2021/12/04 15:56:53;;;;;;;36.45;4.70;;;9.00;99.90;;;;;;4981873;28;20109;-81
2021/12/04 15:59:29;;;;;;;34.55;4.20;;;8.80;99.90;;;;;;4988783;28;20601;-80
2021/12/04 16:02:12;;;;;;;49.38;5.63;;;8.70;99.90;;;;;;4988053;28;20056;-78
2021/12/04 16:04:41;;;;;;;32.17;3.35;;;8.70;99.90;;;;;;4990317;28;20101;-80
2021/12/04 16:07:08;;;;;;;39.10;3.85;;;8.70;99.90;;;;;;4988701;28;20054;-78
2021/12/04 16:09:38;;;;;;;23.20;2.75;;;8.70;99.90;;;;;;4988800;28;20419;-78
2021/12/04 16:12:07;;;;;;;30.92;3.67;;;8.60;99.90;;;;;;4994306;28;20581;-79
2021/12/04 16:14:37;;;;;;;39.67;5.43;;;8.80;99.90;;;;;;4991768;28;20058;-81